Hlavní strana
METAR-TAF:

METAR-TAF

Letiště :

Letiště Katowice

Katovice, Polsko

zeměpisná šířka: 50-28-27N, zeměpisná délka: 019-04-48E, výška: 284 m

Aktuální stav počasí

Zpráva byla vytvořena před 24 minutami, v 15:30 UTC
Východní vítr 12 kt
Teplota 4°C
Vlhkost vzduchu 75%
Tlak 1036 hPa
Viditelnost 10 km a více
Zataženo ve výšce 1500 ft

METAR: EPKT 161530Z 09012KT 9999 OVC015 04/M00 Q1036

Čas: 16:54 (15:54 UTC)

Předpověď počasí

Zpráva byla vytvořena před 4 hodinami a 24 minutami, v 11:30 UTC
Předpověď platná od 16 v 12 UTC do 17 v 12 UTC
Východoseverovýchodní vítr 10 kt
Viditelnost 10 km a více
Polojasno ve výšce 1500 ft
Oblačno až skoro zataženo ve výšce 2000 ft
Dočasný
od 16 v 18 UTC do 17 v 08 UTC
Viditelnost: 3000 m
Oblačno až skoro zataženo ve výšce 600 ft
kouřmo

TAF: EPKT 161130Z 1612/1712 07010KT 9999 SCT015 BKN020 TEMPO 1618/1708 3000 BR BKN006

Stav a předpovědi počasí z více než 4 000 letišť (zprávy METAR a TAF).

Červené a žluté tečky na mapě představují dostupné meteorologické stanice.

Když kurzor umístíte na tečku, zobrazí se název stanice.

Pak kliknutím zobrazíte stav a předpověď počasí.

Chcete-li změnit mapu, kliknutím na zelené tlačítko se znaménkem +mapu přiblížíte, kliknutím na zelené tlačítko se znaménkem – mapu oddálíte a kliknutím na zelené šipky přejdete na sousední mapy.


METAR-TAF: